sensor_id;sensor_type;location;lat;lon;timestamp;P1;durP1;ratioP1;P2;durP2;ratioP2
71777;SDS011;59609;52.430;4.668;2023-03-14T00:00:56;10.95;;;1.58;;
71777;SDS011;59609;52.430;4.668;2023-03-14T00:03:22;14.75;;;1.80;;
71777;SDS011;59609;52.430;4.668;2023-03-14T00:05:47;13.75;;;1.58;;
71777;SDS011;59609;52.430;4.668;2023-03-14T00:08:14;9.55;;;2.17;;
71777;SDS011;59609;52.430;4.668;2023-03-14T00:10:41;7.03;;;1.20;;
71777;SDS011;59609;52.430;4.668;2023-03-14T00:13:06;12.90;;;1.55;;
71777;SDS011;59609;52.430;4.668;2023-03-14T00:15:32;9.18;;;1.65;;
71777;SDS011;59609;52.430;4.668;2023-03-14T00:17:59;13.27;;;1.60;;
71777;SDS011;59609;52.430;4.668;2023-03-14T00:20:24;10.70;;;1.38;;
71777;SDS011;59609;52.430;4.668;2023-03-14T00:22:50;11.27;;;2.00;;
71777;SDS011;59609;52.430;4.668;2023-03-14T00:25:15;6.07;;;1.10;;
71777;SDS011;59609;52.430;4.668;2023-03-14T00:27:41;16.00;;;1.33;;
71777;SDS011;59609;52.430;4.668;2023-03-14T00:30:06;11.35;;;1.42;;
71777;SDS011;59609;52.430;4.668;2023-03-14T00:32:33;18.25;;;1.85;;
71777;SDS011;59609;52.430;4.668;2023-03-14T00:35:01;9.02;;;1.58;;
71777;SDS011;59609;52.430;4.668;2023-03-14T00:37:28;15.65;;;1.58;;
71777;SDS011;59609;52.430;4.668;2023-03-14T00:39:53;9.20;;;1.30;;
71777;SDS011;59609;52.430;4.668;2023-03-14T00:42:18;9.57;;;1.48;;
71777;SDS011;59609;52.430;4.668;2023-03-14T00:44:44;5.75;;;1.58;;
71777;SDS011;59609;52.430;4.668;2023-03-14T00:47:09;7.00;;;1.33;;
71777;SDS011;59609;52.430;4.668;2023-03-14T00:49:34;13.13;;;2.17;;
71777;SDS011;59609;52.430;4.668;2023-03-14T00:52:00;14.50;;;1.95;;
71777;SDS011;59609;52.430;4.668;2023-03-14T00:54:25;11.40;;;1.45;;
71777;SDS011;59609;52.430;4.668;2023-03-14T00:56:51;18.33;;;1.95;;
71777;SDS011;59609;52.430;4.668;2023-03-14T00:59:16;10.32;;;1.77;;
71777;SDS011;59609;52.430;4.668;2023-03-14T01:01:42;13.90;;;2.17;;
71777;SDS011;59609;52.430;4.668;2023-03-14T01:04:08;13.60;;;2.30;;
71777;SDS011;59609;52.430;4.668;2023-03-14T01:06:33;14.82;;;1.90;;
71777;SDS011;59609;52.430;4.668;2023-03-14T01:08:59;12.38;;;1.38;;
71777;SDS011;59609;52.430;4.668;2023-03-14T01:11:25;12.30;;;2.05;;
71777;SDS011;59609;52.430;4.668;2023-03-14T01:13:53;11.98;;;2.10;;
71777;SDS011;59609;52.430;4.668;2023-03-14T01:16:19;18.80;;;2.20;;
71777;SDS011;59609;52.430;4.668;2023-03-14T01:18:46;14.32;;;2.25;;
71777;SDS011;59609;52.430;4.668;2023-03-14T01:21:16;14.15;;;2.75;;
71777;SDS011;59609;52.430;4.668;2023-03-14T01:23:47;18.45;;;2.35;;
71777;SDS011;59609;52.430;4.668;2023-03-14T01:26:14;10.98;;;1.77;;
71777;SDS011;59609;52.430;4.668;2023-03-14T01:28:41;15.30;;;2.33;;
71777;SDS011;59609;52.430;4.668;2023-03-14T01:31:08;14.82;;;2.33;;
71777;SDS011;59609;52.430;4.668;2023-03-14T01:33:35;20.40;;;2.22;;
71777;SDS011;59609;52.430;4.668;2023-03-14T01:36:01;15.38;;;2.05;;
71777;SDS011;59609;52.430;4.668;2023-03-14T01:38:28;21.17;;;2.55;;
71777;SDS011;59609;52.430;4.668;2023-03-14T01:40:54;15.75;;;2.30;;
71777;SDS011;59609;52.430;4.668;2023-03-14T01:43:20;12.95;;;2.30;;
71777;SDS011;59609;52.430;4.668;2023-03-14T01:51:22;19.75;;;2.22;;
71777;SDS011;59609;52.430;4.668;2023-03-14T01:53:54;13.95;;;1.75;;
71777;SDS011;59609;52.430;4.668;2023-03-14T01:56:27;15.77;;;1.88;;
71777;SDS011;59609;52.430;4.668;2023-03-14T01:58:53;25.38;;;2.60;;
71777;SDS011;59609;52.430;4.668;2023-03-14T02:01:19;20.30;;;2.17;;
71777;SDS011;59609;52.430;4.668;2023-03-14T02:03:56;21.40;;;2.30;;
71777;SDS011;59609;52.430;4.668;2023-03-14T02:06:27;23.10;;;2.63;;
71777;SDS011;59609;52.430;4.668;2023-03-14T02:08:59;21.65;;;2.13;;
71777;SDS011;59609;52.430;4.668;2023-03-14T02:11:26;14.07;;;1.60;;
71777;SDS011;59609;52.430;4.668;2023-03-14T02:13:54;20.00;;;2.20;;
71777;SDS011;59609;52.430;4.668;2023-03-14T02:16:21;19.90;;;2.00;;
71777;SDS011;59609;52.430;4.668;2023-03-14T02:18:47;16.77;;;2.40;;
71777;SDS011;59609;52.430;4.668;2023-03-14T02:24:04;16.75;;;1.92;;
71777;SDS011;59609;52.430;4.668;2023-03-14T02:29:08;9.40;;;1.75;;
71777;SDS011;59609;52.430;4.668;2023-03-14T02:31:34;19.08;;;2.45;;
71777;SDS011;59609;52.430;4.668;2023-03-14T02:34:00;12.00;;;1.67;;
71777;SDS011;59609;52.430;4.668;2023-03-14T02:36:27;15.68;;;1.58;;
71777;SDS011;59609;52.430;4.668;2023-03-14T02:41:42;14.07;;;1.48;;
71777;SDS011;59609;52.430;4.668;2023-03-14T02:44:10;7.22;;;1.13;;
71777;SDS011;59609;52.430;4.668;2023-03-14T02:46:35;11.98;;;1.48;;
71777;SDS011;59609;52.430;4.668;2023-03-14T02:49:01;13.80;;;1.65;;
71777;SDS011;59609;52.430;4.668;2023-03-14T02:51:29;14.75;;;1.77;;
71777;SDS011;59609;52.430;4.668;2023-03-14T02:53:55;11.93;;;1.77;;
71777;SDS011;59609;52.430;4.668;2023-03-14T02:56:20;11.35;;;1.63;;
71777;SDS011;59609;52.430;4.668;2023-03-14T02:58:46;10.43;;;1.88;;
71777;SDS011;59609;52.430;4.668;2023-03-14T03:01:11;12.93;;;2.00;;
71777;SDS011;59609;52.430;4.668;2023-03-14T03:03:37;18.05;;;2.58;;
71777;SDS011;59609;52.430;4.668;2023-03-14T03:06:02;12.05;;;1.42;;
71777;SDS011;59609;52.430;4.668;2023-03-14T03:08:28;12.43;;;2.17;;
71777;SDS011;59609;52.430;4.668;2023-03-14T03:10:53;8.63;;;1.15;;
71777;SDS011;59609;52.430;4.668;2023-03-14T03:13:19;16.58;;;2.30;;
71777;SDS011;59609;52.430;4.668;2023-03-14T03:15:45;12.93;;;1.83;;
71777;SDS011;59609;52.430;4.668;2023-03-14T03:18:11;5.95;;;1.20;;
71777;SDS011;59609;52.430;4.668;2023-03-14T03:20:37;15.15;;;2.17;;
71777;SDS011;59609;52.430;4.668;2023-03-14T03:23:03;7.75;;;1.13;;
71777;SDS011;59609;52.430;4.668;2023-03-14T03:25:28;11.90;;;1.55;;
71777;SDS011;59609;52.430;4.668;2023-03-14T03:27:54;7.78;;;1.58;;
71777;SDS011;59609;52.430;4.668;2023-03-14T03:30:19;7.90;;;1.63;;
71777;SDS011;59609;52.430;4.668;2023-03-14T03:32:45;14.38;;;1.80;;
71777;SDS011;59609;52.430;4.668;2023-03-14T03:35:11;10.40;;;1.85;;
71777;SDS011;59609;52.430;4.668;2023-03-14T03:37:37;10.30;;;1.50;;
71777;SDS011;59609;52.430;4.668;2023-03-14T03:40:03;12.55;;;2.30;;
71777;SDS011;59609;52.430;4.668;2023-03-14T03:42:31;14.13;;;2.78;;
71777;SDS011;59609;52.430;4.668;2023-03-14T03:44:56;6.72;;;1.70;;
71777;SDS011;59609;52.430;4.668;2023-03-14T03:47:22;8.00;;;2.13;;
71777;SDS011;59609;52.430;4.668;2023-03-14T03:49:47;11.93;;;2.78;;
71777;SDS011;59609;52.430;4.668;2023-03-14T03:52:12;14.48;;;2.50;;
71777;SDS011;59609;52.430;4.668;2023-03-14T03:54:38;8.07;;;1.80;;
71777;SDS011;59609;52.430;4.668;2023-03-14T03:57:03;10.95;;;2.45;;
71777;SDS011;59609;52.430;4.668;2023-03-14T03:59:28;12.50;;;2.10;;
71777;SDS011;59609;52.430;4.668;2023-03-14T04:01:54;10.27;;;2.30;;
71777;SDS011;59609;52.430;4.668;2023-03-14T04:04:19;9.93;;;2.10;;
71777;SDS011;59609;52.430;4.668;2023-03-14T04:06:44;12.18;;;2.20;;
71777;SDS011;59609;52.430;4.668;2023-03-14T04:09:10;9.18;;;2.63;;
71777;SDS011;59609;52.430;4.668;2023-03-14T04:11:36;9.27;;;2.28;;
71777;SDS011;59609;52.430;4.668;2023-03-14T04:14:01;11.45;;;2.30;;
71777;SDS011;59609;52.430;4.668;2023-03-14T04:16:27;9.18;;;1.95;;
71777;SDS011;59609;52.430;4.668;2023-03-14T04:18:52;12.60;;;4.32;;
71777;SDS011;59609;52.430;4.668;2023-03-14T04:21:18;8.75;;;2.85;;
71777;SDS011;59609;52.430;4.668;2023-03-14T04:23:43;19.30;;;3.08;;
71777;SDS011;59609;52.430;4.668;2023-03-14T04:26:09;8.40;;;2.90;;
71777;SDS011;59609;52.430;4.668;2023-03-14T04:28:37;11.60;;;3.33;;
71777;SDS011;59609;52.430;4.668;2023-03-14T04:31:10;15.00;;;3.88;;
71777;SDS011;59609;52.430;4.668;2023-03-14T04:33:38;13.73;;;3.78;;
71777;SDS011;59609;52.430;4.668;2023-03-14T04:36:04;17.73;;;3.58;;
71777;SDS011;59609;52.430;4.668;2023-03-14T04:38:30;11.43;;;3.58;;
71777;SDS011;59609;52.430;4.668;2023-03-14T04:40:55;14.20;;;2.92;;
71777;SDS011;59609;52.430;4.668;2023-03-14T04:43:21;11.27;;;2.60;;
71777;SDS011;59609;52.430;4.668;2023-03-14T04:45:46;9.25;;;3.20;;
71777;SDS011;59609;52.430;4.668;2023-03-14T04:48:11;12.88;;;3.03;;
71777;SDS011;59609;52.430;4.668;2023-03-14T04:50:37;11.65;;;3.53;;
71777;SDS011;59609;52.430;4.668;2023-03-14T04:53:03;13.93;;;3.42;;
71777;SDS011;59609;52.430;4.668;2023-03-14T04:55:29;10.35;;;2.88;;
71777;SDS011;59609;52.430;4.668;2023-03-14T04:57:57;12.57;;;3.75;;
71777;SDS011;59609;52.430;4.668;2023-03-14T05:00:22;17.77;;;3.63;;
71777;SDS011;59609;52.430;4.668;2023-03-14T05:02:47;11.05;;;3.25;;
71777;SDS011;59609;52.430;4.668;2023-03-14T05:05:13;13.15;;;3.58;;
71777;SDS011;59609;52.430;4.668;2023-03-14T05:07:38;14.65;;;3.13;;
71777;SDS011;59609;52.430;4.668;2023-03-14T05:10:04;12.88;;;3.30;;
71777;SDS011;59609;52.430;4.668;2023-03-14T05:12:29;16.75;;;3.40;;
71777;SDS011;59609;52.430;4.668;2023-03-14T05:14:54;18.13;;;3.50;;
71777;SDS011;59609;52.430;4.668;2023-03-14T05:17:20;13.90;;;2.15;;
71777;SDS011;59609;52.430;4.668;2023-03-14T05:19:45;11.90;;;2.83;;
71777;SDS011;59609;52.430;4.668;2023-03-14T05:22:11;7.72;;;1.58;;
71777;SDS011;59609;52.430;4.668;2023-03-14T05:24:36;2.75;;;1.40;;
71777;SDS011;59609;52.430;4.668;2023-03-14T05:27:02;18.13;;;3.00;;
71777;SDS011;59609;52.430;4.668;2023-03-14T05:29:28;11.27;;;2.47;;
71777;SDS011;59609;52.430;4.668;2023-03-14T05:31:53;11.00;;;1.98;;
71777;SDS011;59609;52.430;4.668;2023-03-14T05:34:19;18.77;;;2.55;;
71777;SDS011;59609;52.430;4.668;2023-03-14T05:36:44;6.05;;;1.80;;
71777;SDS011;59609;52.430;4.668;2023-03-14T05:39:10;9.02;;;2.17;;
71777;SDS011;59609;52.430;4.668;2023-03-14T05:41:35;9.73;;;2.22;;
71777;SDS011;59609;52.430;4.668;2023-03-14T05:44:00;10.07;;;1.55;;
71777;SDS011;59609;52.430;4.668;2023-03-14T05:46:26;15.10;;;2.65;;
71777;SDS011;59609;52.430;4.668;2023-03-14T05:48:51;5.93;;;2.25;;
71777;SDS011;59609;52.430;4.668;2023-03-14T05:51:16;9.15;;;1.45;;
71777;SDS011;59609;52.430;4.668;2023-03-14T05:53:42;7.07;;;1.98;;
71777;SDS011;59609;52.430;4.668;2023-03-14T05:56:07;4.45;;;1.88;;
71777;SDS011;59609;52.430;4.668;2023-03-14T05:58:33;7.38;;;1.63;;
71777;SDS011;59609;52.430;4.668;2023-03-14T06:01:02;6.53;;;2.50;;
71777;SDS011;59609;52.430;4.668;2023-03-14T06:03:29;6.38;;;2.08;;
71777;SDS011;59609;52.430;4.668;2023-03-14T06:05:54;6.38;;;1.83;;
71777;SDS011;59609;52.430;4.668;2023-03-14T06:08:20;12.38;;;2.67;;
71777;SDS011;59609;52.430;4.668;2023-03-14T06:10:45;6.57;;;2.38;;
71777;SDS011;59609;52.430;4.668;2023-03-14T06:13:10;5.43;;;2.03;;
71777;SDS011;59609;52.430;4.668;2023-03-14T06:15:36;10.90;;;1.95;;
71777;SDS011;59609;52.430;4.668;2023-03-14T06:18:01;10.15;;;2.20;;
71777;SDS011;59609;52.430;4.668;2023-03-14T06:20:27;6.43;;;2.25;;
71777;SDS011;59609;52.430;4.668;2023-03-14T06:22:52;6.95;;;1.77;;
71777;SDS011;59609;52.430;4.668;2023-03-14T06:25:18;12.40;;;1.95;;
71777;SDS011;59609;52.430;4.668;2023-03-14T06:27:43;8.27;;;1.40;;
71777;SDS011;59609;52.430;4.668;2023-03-14T06:30:09;8.75;;;1.30;;
71777;SDS011;59609;52.430;4.668;2023-03-14T06:32:35;6.00;;;2.03;;
71777;SDS011;59609;52.430;4.668;2023-03-14T06:35:00;8.35;;;1.77;;
71777;SDS011;59609;52.430;4.668;2023-03-14T06:37:29;7.25;;;1.00;;
71777;SDS011;59609;52.430;4.668;2023-03-14T06:39:55;4.45;;;1.35;;
71777;SDS011;59609;52.430;4.668;2023-03-14T06:42:21;5.10;;;0.90;;
71777;SDS011;59609;52.430;4.668;2023-03-14T06:44:47;10.63;;;1.83;;
71777;SDS011;59609;52.430;4.668;2023-03-14T06:47:12;2.85;;;1.40;;
71777;SDS011;59609;52.430;4.668;2023-03-14T06:49:38;5.13;;;1.20;;
71777;SDS011;59609;52.430;4.668;2023-03-14T06:52:03;5.00;;;1.55;;
71777;SDS011;59609;52.430;4.668;2023-03-14T06:54:29;5.88;;;1.15;;
71777;SDS011;59609;52.430;4.668;2023-03-14T06:56:54;9.93;;;1.50;;
71777;SDS011;59609;52.430;4.668;2023-03-14T06:59:19;10.48;;;1.35;;
71777;SDS011;59609;52.430;4.668;2023-03-14T07:01:45;11.02;;;1.67;;
71777;SDS011;59609;52.430;4.668;2023-03-14T07:04:10;14.50;;;2.10;;
71777;SDS011;59609;52.430;4.668;2023-03-14T07:06:36;9.05;;;2.15;;
71777;SDS011;59609;52.430;4.668;2023-03-14T07:09:01;6.05;;;1.40;;
71777;SDS011;59609;52.430;4.668;2023-03-14T07:11:27;10.52;;;1.23;;
71777;SDS011;59609;52.430;4.668;2023-03-14T07:13:53;6.03;;;1.40;;
71777;SDS011;59609;52.430;4.668;2023-03-14T07:16:18;4.85;;;1.10;;
71777;SDS011;59609;52.430;4.668;2023-03-14T07:18:43;3.25;;;1.27;;
71777;SDS011;59609;52.430;4.668;2023-03-14T07:21:09;8.02;;;1.13;;
71777;SDS011;59609;52.430;4.668;2023-03-14T07:23:35;3.78;;;1.20;;
71777;SDS011;59609;52.430;4.668;2023-03-14T07:26:00;7.20;;;1.05;;
71777;SDS011;59609;52.430;4.668;2023-03-14T07:28:26;6.43;;;1.20;;
71777;SDS011;59609;52.430;4.668;2023-03-14T07:30:52;6.93;;;1.35;;
71777;SDS011;59609;52.430;4.668;2023-03-14T07:33:18;1.88;;;1.00;;
71777;SDS011;59609;52.430;4.668;2023-03-14T07:35:46;7.53;;;1.42;;
71777;SDS011;59609;52.430;4.668;2023-03-14T07:38:13;5.00;;;1.23;;
71777;SDS011;59609;52.430;4.668;2023-03-14T07:40:39;3.60;;;1.20;;
71777;SDS011;59609;52.430;4.668;2023-03-14T07:43:04;6.07;;;1.15;;
71777;SDS011;59609;52.430;4.668;2023-03-14T07:45:32;2.97;;;1.20;;
71777;SDS011;59609;52.430;4.668;2023-03-14T07:47:57;4.25;;;1.67;;
71777;SDS011;59609;52.430;4.668;2023-03-14T07:50:23;5.05;;;0.90;;
71777;SDS011;59609;52.430;4.668;2023-03-14T07:52:52;2.45;;;1.40;;
71777;SDS011;59609;52.430;4.668;2023-03-14T07:55:17;3.78;;;0.90;;
71777;SDS011;59609;52.430;4.668;2023-03-14T07:57:43;10.05;;;1.63;;
71777;SDS011;59609;52.430;4.668;2023-03-14T08:00:08;4.68;;;0.95;;
71777;SDS011;59609;52.430;4.668;2023-03-14T08:02:35;6.88;;;1.20;;
71777;SDS011;59609;52.430;4.668;2023-03-14T08:05:01;8.55;;;1.10;;
71777;SDS011;59609;52.430;4.668;2023-03-14T08:07:28;13.55;;;1.10;;
71777;SDS011;59609;52.430;4.668;2023-03-14T08:09:53;5.60;;;0.88;;
71777;SDS011;59609;52.430;4.668;2023-03-14T08:12:18;7.47;;;1.65;;
71777;SDS011;59609;52.430;4.668;2023-03-14T08:14:44;10.40;;;1.77;;
71777;SDS011;59609;52.430;4.668;2023-03-14T08:17:09;9.10;;;1.70;;
71777;SDS011;59609;52.430;4.668;2023-03-14T08:19:34;13.27;;;2.15;;
71777;SDS011;59609;52.430;4.668;2023-03-14T08:22:00;11.27;;;1.83;;
71777;SDS011;59609;52.430;4.668;2023-03-14T08:24:25;7.55;;;1.50;;
71777;SDS011;59609;52.430;4.668;2023-03-14T08:26:51;11.07;;;1.77;;
71777;SDS011;59609;52.430;4.668;2023-03-14T08:29:16;8.10;;;1.95;;
71777;SDS011;59609;52.430;4.668;2023-03-14T08:31:41;10.85;;;1.73;;
71777;SDS011;59609;52.430;4.668;2023-03-14T08:34:07;10.48;;;1.45;;
71777;SDS011;59609;52.430;4.668;2023-03-14T08:36:32;13.57;;;1.58;;
71777;SDS011;59609;52.430;4.668;2023-03-14T08:38:58;6.60;;;1.42;;
71777;SDS011;59609;52.430;4.668;2023-03-14T08:41:23;8.77;;;1.48;;
71777;SDS011;59609;52.430;4.668;2023-03-14T08:43:49;17.13;;;1.85;;
71777;SDS011;59609;52.430;4.668;2023-03-14T08:46:14;9.60;;;2.22;;
71777;SDS011;59609;52.430;4.668;2023-03-14T08:48:40;17.25;;;2.55;;
71777;SDS011;59609;52.430;4.668;2023-03-14T08:53:31;9.52;;;1.90;;
71777;SDS011;59609;52.430;4.668;2023-03-14T08:55:57;6.53;;;1.48;;
71777;SDS011;59609;52.430;4.668;2023-03-14T08:58:22;9.88;;;2.40;;
71777;SDS011;59609;52.430;4.668;2023-03-14T09:00:48;14.75;;;2.10;;
71777;SDS011;59609;52.430;4.668;2023-03-14T09:03:14;10.38;;;2.60;;
71777;SDS011;59609;52.430;4.668;2023-03-14T09:05:39;16.95;;;2.38;;
71777;SDS011;59609;52.430;4.668;2023-03-14T09:08:05;9.80;;;2.80;;
71777;SDS011;59609;52.430;4.668;2023-03-14T09:10:30;9.57;;;2.42;;
71777;SDS011;59609;52.430;4.668;2023-03-14T09:12:56;12.15;;;2.78;;
71777;SDS011;59609;52.430;4.668;2023-03-14T09:15:23;10.70;;;1.95;;
71777;SDS011;59609;52.430;4.668;2023-03-14T09:17:49;14.02;;;2.50;;
71777;SDS011;59609;52.430;4.668;2023-03-14T09:20:14;10.07;;;2.72;;
71777;SDS011;59609;52.430;4.668;2023-03-14T09:22:39;12.65;;;2.60;;
71777;SDS011;59609;52.430;4.668;2023-03-14T09:25:05;19.33;;;2.40;;
71777;SDS011;59609;52.430;4.668;2023-03-14T09:27:31;20.80;;;2.53;;
71777;SDS011;59609;52.430;4.668;2023-03-14T09:29:57;13.68;;;2.55;;
71777;SDS011;59609;52.430;4.668;2023-03-14T09:32:22;15.50;;;2.65;;
71777;SDS011;59609;52.430;4.668;2023-03-14T09:34:47;21.38;;;2.78;;
71777;SDS011;59609;52.430;4.668;2023-03-14T09:37:13;15.68;;;2.55;;
71777;SDS011;59609;52.430;4.668;2023-03-14T09:39:40;16.20;;;1.75;;
71777;SDS011;59609;52.430;4.668;2023-03-14T09:42:06;11.77;;;2.58;;
71777;SDS011;59609;52.430;4.668;2023-03-14T09:44:37;13.80;;;2.97;;
71777;SDS011;59609;52.430;4.668;2023-03-14T09:47:09;10.80;;;2.53;;
71777;SDS011;59609;52.430;4.668;2023-03-14T09:49:39;21.60;;;2.50;;
71777;SDS011;59609;52.430;4.668;2023-03-14T09:52:20;18.85;;;2.53;;
71777;SDS011;59609;52.430;4.668;2023-03-14T09:54:50;16.83;;;2.30;;
71777;SDS011;59609;52.430;4.668;2023-03-14T09:57:19;13.20;;;2.28;;
71777;SDS011;59609;52.430;4.668;2023-03-14T09:59:47;12.07;;;2.28;;
71777;SDS011;59609;52.430;4.668;2023-03-14T10:02:16;12.73;;;2.08;;
71777;SDS011;59609;52.430;4.668;2023-03-14T10:04:50;14.55;;;2.05;;
71777;SDS011;59609;52.430;4.668;2023-03-14T10:07:18;11.63;;;1.73;;
71777;SDS011;59609;52.430;4.668;2023-03-14T10:09:49;11.98;;;1.90;;
71777;SDS011;59609;52.430;4.668;2023-03-14T10:12:16;13.98;;;2.78;;
71777;SDS011;59609;52.430;4.668;2023-03-14T10:14:49;12.70;;;2.83;;
71777;SDS011;59609;52.430;4.668;2023-03-14T10:17:18;10.25;;;1.30;;
71777;SDS011;59609;52.430;4.668;2023-03-14T10:19:55;12.48;;;2.13;;
71777;SDS011;59609;52.430;4.668;2023-03-14T10:22:23;11.95;;;2.15;;
71777;SDS011;59609;52.430;4.668;2023-03-14T10:24:52;14.80;;;2.00;;
71777;SDS011;59609;52.430;4.668;2023-03-14T10:27:32;11.43;;;1.70;;
71777;SDS011;59609;52.430;4.668;2023-03-14T10:30:00;13.27;;;1.85;;
71777;SDS011;59609;52.430;4.668;2023-03-14T10:32:33;10.48;;;1.70;;
71777;SDS011;59609;52.430;4.668;2023-03-14T10:37:58;8.65;;;2.08;;
71777;SDS011;59609;52.430;4.668;2023-03-14T10:43:05;7.05;;;1.30;;
71777;SDS011;59609;52.430;4.668;2023-03-14T10:45:39;6.63;;;1.30;;
71777;SDS011;59609;52.430;4.668;2023-03-14T10:50:45;3.85;;;1.58;;
71777;SDS011;59609;52.430;4.668;2023-03-14T10:53:16;10.13;;;1.40;;
71777;SDS011;59609;52.430;4.668;2023-03-14T10:55:43;20.98;;;2.17;;
71777;SDS011;59609;52.430;4.668;2023-03-14T11:00:49;7.20;;;1.35;;
71777;SDS011;59609;52.430;4.668;2023-03-14T11:03:35;10.48;;;1.42;;
71777;SDS011;59609;52.430;4.668;2023-03-14T11:06:07;16.30;;;1.45;;
71777;SDS011;59609;52.430;4.668;2023-03-14T11:08:37;10.85;;;1.95;;
71777;SDS011;59609;52.430;4.668;2023-03-14T11:11:22;8.57;;;1.80;;
71777;SDS011;59609;52.430;4.668;2023-03-14T11:14:26;8.00;;;1.60;;
71777;SDS011;59609;52.430;4.668;2023-03-14T11:19:40;11.30;;;1.63;;
71777;SDS011;59609;52.430;4.668;2023-03-14T11:25:00;5.43;;;1.20;;
71777;SDS011;59609;52.430;4.668;2023-03-14T11:38:28;8.60;;;1.10;;
71777;SDS011;59609;52.430;4.668;2023-03-14T11:40:55;9.63;;;1.33;;
71777;SDS011;59609;52.430;4.668;2023-03-14T11:46:04;4.20;;;1.00;;
71777;SDS011;59609;52.430;4.668;2023-03-14T11:51:35;6.03;;;1.08;;
71777;SDS011;59609;52.430;4.668;2023-03-14T11:56:39;2.78;;;1.27;;
71777;SDS011;59609;52.430;4.668;2023-03-14T11:59:18;4.43;;;1.20;;
71777;SDS011;59609;52.430;4.668;2023-03-14T12:04:26;8.75;;;1.00;;
71777;SDS011;59609;52.430;4.668;2023-03-14T12:06:54;5.00;;;0.90;;
71777;SDS011;59609;52.430;4.668;2023-03-14T12:09:22;5.50;;;1.00;;
71777;SDS011;59609;52.430;4.668;2023-03-14T12:11:52;5.88;;;0.88;;
71777;SDS011;59609;52.430;4.668;2023-03-14T12:14:32;6.47;;;1.45;;
71777;SDS011;59609;52.430;4.668;2023-03-14T12:19:35;6.28;;;1.00;;
71777;SDS011;59609;52.430;4.668;2023-03-14T12:24:33;7.03;;;1.63;;
71777;SDS011;59609;52.430;4.668;2023-03-14T12:27:04;7.35;;;1.42;;
71777;SDS011;59609;52.430;4.668;2023-03-14T12:29:31;7.95;;;1.15;;
71777;SDS011;59609;52.430;4.668;2023-03-14T12:34:26;8.82;;;1.40;;
71777;SDS011;59609;52.430;4.668;2023-03-14T12:37:04;6.50;;;1.08;;
71777;SDS011;59609;52.430;4.668;2023-03-14T12:39:50;7.13;;;1.48;;
71777;SDS011;59609;52.430;4.668;2023-03-14T12:47:56;12.15;;;1.75;;
71777;SDS011;59609;52.430;4.668;2023-03-14T12:50:31;5.88;;;1.13;;
71777;SDS011;59609;52.430;4.668;2023-03-14T12:55:36;3.92;;;1.05;;
71777;SDS011;59609;52.430;4.668;2023-03-14T12:59:05;3.38;;;1.10;;
71777;SDS011;59609;52.430;4.668;2023-03-14T13:01:23;7.50;;;1.15;;
71777;SDS011;59609;52.430;4.668;2023-03-14T13:03:53;5.03;;;1.85;;
71777;SDS011;59609;52.430;4.668;2023-03-14T13:12:00;4.18;;;1.08;;
71777;SDS011;59609;52.430;4.668;2023-03-14T13:14:31;6.28;;;1.13;;
71777;SDS011;59609;52.430;4.668;2023-03-14T13:17:00;5.95;;;1.15;;
71777;SDS011;59609;52.430;4.668;2023-03-14T13:19:27;2.20;;;0.60;;
71777;SDS011;59609;52.430;4.668;2023-03-14T13:22:14;7.85;;;1.02;;
71777;SDS011;59609;52.430;4.668;2023-03-14T13:24:45;5.07;;;0.80;;
71777;SDS011;59609;52.430;4.668;2023-03-14T13:27:16;5.93;;;0.77;;
71777;SDS011;59609;52.430;4.668;2023-03-14T13:29:44;6.90;;;0.98;;
71777;SDS011;59609;52.430;4.668;2023-03-14T13:32:16;3.70;;;0.70;;
71777;SDS011;59609;52.430;4.668;2023-03-14T13:34:44;6.90;;;0.95;;
71777;SDS011;59609;52.430;4.668;2023-03-14T13:37:19;11.07;;;1.00;;
71777;SDS011;59609;52.430;4.668;2023-03-14T13:39:53;14.15;;;0.93;;
71777;SDS011;59609;52.430;4.668;2023-03-14T13:42:20;6.40;;;0.90;;
71777;SDS011;59609;52.430;4.668;2023-03-14T13:44:49;8.90;;;1.70;;
71777;SDS011;59609;52.430;4.668;2023-03-14T13:47:18;5.53;;;1.02;;
71777;SDS011;59609;52.430;4.668;2023-03-14T13:49:45;10.57;;;1.38;;
71777;SDS011;59609;52.430;4.668;2023-03-14T13:54:59;7.07;;;1.17;;
71777;SDS011;59609;52.430;4.668;2023-03-14T13:57:25;10.50;;;1.25;;
71777;SDS011;59609;52.430;4.668;2023-03-14T13:59:58;12.32;;;1.63;;
71777;SDS011;59609;52.430;4.668;2023-03-14T14:02:26;5.25;;;1.13;;
71777;SDS011;59609;52.430;4.668;2023-03-14T14:04:52;7.53;;;0.85;;
71777;SDS011;59609;52.430;4.668;2023-03-14T14:07:18;4.43;;;0.75;;
71777;SDS011;59609;52.430;4.668;2023-03-14T14:09:44;5.15;;;0.80;;
71777;SDS011;59609;52.430;4.668;2023-03-14T14:12:15;5.22;;;1.15;;
71777;SDS011;59609;52.430;4.668;2023-03-14T14:17:15;4.15;;;0.95;;
71777;SDS011;59609;52.430;4.668;2023-03-14T14:19:44;2.13;;;0.65;;
71777;SDS011;59609;52.430;4.668;2023-03-14T14:22:12;4.18;;;0.70;;
71777;SDS011;59609;52.430;4.668;2023-03-14T14:24:37;2.97;;;0.95;;
71777;SDS011;59609;52.430;4.668;2023-03-14T14:27:13;7.63;;;0.88;;
71777;SDS011;59609;52.430;4.668;2023-03-14T14:29:40;3.75;;;0.82;;
71777;SDS011;59609;52.430;4.668;2023-03-14T14:34:58;6.13;;;0.93;;
71777;SDS011;59609;52.430;4.668;2023-03-14T14:39:52;3.80;;;0.73;;
71777;SDS011;59609;52.430;4.668;2023-03-14T14:44:49;5.90;;;0.93;;
71777;SDS011;59609;52.430;4.668;2023-03-14T14:47:18;5.47;;;0.63;;
71777;SDS011;59609;52.430;4.668;2023-03-14T14:49:46;6.93;;;1.02;;
71777;SDS011;59609;52.430;4.668;2023-03-14T14:52:14;4.72;;;0.63;;
71777;SDS011;59609;52.430;4.668;2023-03-14T14:54:58;3.42;;;0.63;;
71777;SDS011;59609;52.430;4.668;2023-03-14T14:57:25;9.07;;;1.10;;
71777;SDS011;59609;52.430;4.668;2023-03-14T15:00:03;7.38;;;1.63;;
71777;SDS011;59609;52.430;4.668;2023-03-14T15:02:36;3.97;;;1.00;;
71777;SDS011;59609;52.430;4.668;2023-03-14T15:05:13;6.55;;;0.82;;
71777;SDS011;59609;52.430;4.668;2023-03-14T15:07:40;10.10;;;1.27;;
71777;SDS011;59609;52.430;4.668;2023-03-14T15:10:06;5.50;;;0.70;;
71777;SDS011;59609;52.430;4.668;2023-03-14T15:12:34;13.00;;;1.00;;
71777;SDS011;59609;52.430;4.668;2023-03-14T15:14:59;3.28;;;0.80;;
71777;SDS011;59609;52.430;4.668;2023-03-14T15:17:25;6.85;;;0.77;;
71777;SDS011;59609;52.430;4.668;2023-03-14T15:19:50;4.78;;;0.73;;
71777;SDS011;59609;52.430;4.668;2023-03-14T15:22:16;4.63;;;1.13;;
71777;SDS011;59609;52.430;4.668;2023-03-14T15:24:41;5.60;;;0.80;;
71777;SDS011;59609;52.430;4.668;2023-03-14T15:27:12;3.85;;;0.55;;
71777;SDS011;59609;52.430;4.668;2023-03-14T15:29:39;3.70;;;0.80;;
71777;SDS011;59609;52.430;4.668;2023-03-14T15:32:04;2.83;;;0.73;;
71777;SDS011;59609;52.430;4.668;2023-03-14T15:34:30;5.75;;;0.60;;
71777;SDS011;59609;52.430;4.668;2023-03-14T15:36:55;4.75;;;0.65;;
71777;SDS011;59609;52.430;4.668;2023-03-14T15:39:20;10.43;;;0.90;;
71777;SDS011;59609;52.430;4.668;2023-03-14T15:41:46;6.57;;;0.85;;
71777;SDS011;59609;52.430;4.668;2023-03-14T15:44:11;9.18;;;1.08;;
71777;SDS011;59609;52.430;4.668;2023-03-14T15:46:37;3.38;;;0.80;;
71777;SDS011;59609;52.430;4.668;2023-03-14T15:49:02;7.93;;;1.05;;
71777;SDS011;59609;52.430;4.668;2023-03-14T15:51:27;2.75;;;0.55;;
71777;SDS011;59609;52.430;4.668;2023-03-14T15:53:53;7.38;;;0.80;;
71777;SDS011;59609;52.430;4.668;2023-03-14T15:56:19;6.75;;;0.93;;
71777;SDS011;59609;52.430;4.668;2023-03-14T15:58:45;10.38;;;1.23;;
71777;SDS011;59609;52.430;4.668;2023-03-14T16:01:11;4.90;;;0.98;;
71777;SDS011;59609;52.430;4.668;2023-03-14T16:03:37;3.03;;;0.80;;
71777;SDS011;59609;52.430;4.668;2023-03-14T16:06:03;6.57;;;0.90;;
71777;SDS011;59609;52.430;4.668;2023-03-14T16:08:29;8.15;;;0.60;;
71777;SDS011;59609;52.430;4.668;2023-03-14T16:10:55;3.72;;;0.50;;